Time,TemperatureF,DewpointF,PressureIn,WindDirection,WindDirectionDegrees,WindSpeedMPH,WindSpeedGustMPH,Humidity,HourlyPrecipIn,Conditions,Clouds,dailyrainin,SoftwareType,DateUTC
2013-02-23 00:01:00,31.0,23.0,30.20,North,8,1.0,3.0,71,0.00,,,0.00,,2013-02-23 06:01:00,
2013-02-23 00:11:00,31.0,23.0,30.20,North,8,1.0,3.0,71,0.00,,,0.00,,2013-02-23 06:11:00,
2013-02-23 00:22:00,31.0,23.0,30.20,NNE,18,1.0,3.0,72,0.00,,,0.00,,2013-02-23 06:22:00,
2013-02-23 00:31:00,31.0,23.0,30.19,NNW,345,1.0,4.0,73,0.00,,,0.00,,2013-02-23 06:31:00,
2013-02-23 00:41:00,31.0,23.0,30.19,NNW,345,1.0,4.0,73,0.00,,,0.00,,2013-02-23 06:41:00,
2013-02-23 00:51:00,30.0,23.0,30.19,NNE,27,2.0,5.0,74,0.00,,,0.00,,2013-02-23 06:51:00,
2013-02-23 01:01:00,31.0,23.0,30.18,NE,37,3.0,7.0,73,0.00,,,0.00,,2013-02-23 07:01:00,
2013-02-23 01:11:00,31.0,23.0,30.18,NE,37,3.0,7.0,73,0.00,,,0.00,,2013-02-23 07:11:00,
2013-02-23 01:21:00,30.0,22.0,30.18,NNE,15,2.0,4.0,73,0.00,,,0.00,,2013-02-23 07:21:00,
2013-02-23 01:32:00,30.0,23.0,30.17,NE,55,3.0,5.0,74,0.00,,,0.00,,2013-02-23 07:32:00,
2013-02-23 01:41:00,30.0,23.0,30.17,NE,55,3.0,5.0,74,0.00,,,0.00,,2013-02-23 07:41:00,
2013-02-23 01:51:00,30.0,23.0,30.17,NE,55,3.0,5.0,74,0.00,,,0.00,,2013-02-23 07:51:00,
2013-02-23 02:01:00,30.0,22.0,30.16,NNE,23,5.0,9.0,73,0.00,,,0.00,,2013-02-23 08:01:00,
2013-02-23 02:11:00,30.0,22.0,30.16,NNE,23,5.0,9.0,73,0.00,,,0.00,,2013-02-23 08:11:00,
2013-02-23 02:21:00,30.0,22.0,30.16,NE,34,3.0,8.0,73,0.00,,,0.00,,2013-02-23 08:21:00,
2013-02-23 02:31:00,30.0,23.0,30.16,North,360,2.0,4.0,74,0.00,,,0.00,,2013-02-23 08:31:00,
2013-02-23 02:42:00,30.0,23.0,30.16,North,360,2.0,4.0,74,0.00,,,0.00,,2013-02-23 08:42:00,
2013-02-23 02:52:00,29.0,22.0,30.16,NNW,338,2.0,7.0,75,0.00,,,0.00,,2013-02-23 08:52:00,
2013-02-23 03:01:00,29.0,22.0,30.14,ENE,68,2.0,5.0,76,0.00,,,0.00,,2013-02-23 09:01:00,
2013-02-23 03:11:00,29.0,22.0,30.14,ENE,68,2.0,5.0,76,0.00,,,0.00,,2013-02-23 09:11:00,
2013-02-23 03:21:00,29.0,22.0,30.13,NNE,20,3.0,10.0,76,0.00,,,0.00,,2013-02-23 09:21:00,
2013-02-23 03:31:00,29.0,22.0,30.12,NE,44,3.0,8.0,76,0.00,,,0.00,,2013-02-23 09:31:00,
2013-02-23 03:42:00,29.0,22.0,30.12,NE,44,3.0,8.0,76,0.00,,,0.00,,2013-02-23 09:42:00,
2013-02-23 03:51:00,29.0,23.0,30.12,North,350,2.0,5.0,77,0.00,,,0.00,,2013-02-23 09:51:00,
2013-02-23 04:01:00,28.0,22.0,30.12,ENE,63,3.0,7.0,77,0.00,,,0.00,,2013-02-23 10:01:00,
2013-02-23 04:11:00,28.0,22.0,30.12,ENE,63,3.0,7.0,77,0.00,,,0.00,,2013-02-23 10:11:00,
2013-02-23 04:21:00,28.0,22.0,30.12,NNE,29,3.0,6.0,78,0.00,,,0.00,,2013-02-23 10:21:00,
2013-02-23 04:32:00,28.0,22.0,30.11,NE,54,3.0,5.0,78,0.00,,,0.00,,2013-02-23 10:32:00,
2013-02-23 04:42:00,28.0,22.0,30.11,NE,54,3.0,5.0,78,0.00,,,0.00,,2013-02-23 10:42:00,
2013-02-23 04:51:00,28.0,22.0,30.10,NNE,13,3.0,6.0,78,0.00,,,0.00,,2013-02-23 10:51:00,
2013-02-23 05:02:00,27.0,21.0,30.10,NE,41,2.0,7.0,78,0.00,,,0.00,,2013-02-23 11:02:00,
2013-02-23 05:11:00,27.0,21.0,30.10,NE,41,2.0,7.0,78,0.00,,,0.00,,2013-02-23 11:11:00,
2013-02-23 05:21:00,27.0,21.0,30.11,NNW,348,1.0,4.0,79,0.00,,,0.00,,2013-02-23 11:21:00,
2013-02-23 05:32:00,27.0,21.0,30.12,NNW,337,2.0,3.0,79,0.00,,,0.00,,2013-02-23 11:32:00,
2013-02-23 05:42:00,27.0,21.0,30.12,NNW,337,2.0,3.0,79,0.00,,,0.00,,2013-02-23 11:42:00,
2013-02-23 05:52:00,26.0,21.0,30.11,NE,35,1.0,5.0,80,0.00,,,0.00,,2013-02-23 11:52:00,
2013-02-23 06:02:00,27.0,22.0,30.11,NE,34,2.0,4.0,80,0.00,,,0.00,,2013-02-23 12:02:00,
2013-02-23 06:11:00,27.0,22.0,30.11,NE,34,2.0,4.0,80,0.00,,,0.00,,2013-02-23 12:11:00,
2013-02-23 06:21:00,27.0,22.0,30.11,North,353,2.0,5.0,80,0.00,,,0.00,,2013-02-23 12:21:00,
2013-02-23 06:32:00,27.0,22.0,30.11,NNE,30,2.0,4.0,81,0.00,,,0.00,,2013-02-23 12:32:00,
2013-02-23 06:42:00,27.0,22.0,30.11,NNE,30,2.0,4.0,81,0.00,,,0.00,,2013-02-23 12:42:00,
2013-02-23 06:52:00,27.0,22.0,30.11,NE,50,1.0,5.0,81,0.00,,,0.00,,2013-02-23 12:52:00,
2013-02-23 07:01:00,26.0,21.0,30.11,ENE,58,1.0,4.0,82,0.00,,,0.00,,2013-02-23 13:01:00,
2013-02-23 07:11:00,26.0,21.0,30.11,ENE,58,1.0,4.0,82,0.00,,,0.00,,2013-02-23 13:11:00,
2013-02-23 07:22:00,26.0,21.0,30.11,ENE,58,1.0,4.0,82,0.00,,,0.00,,2013-02-23 13:22:00,
2013-02-23 07:32:00,26.0,21.0,30.11,East,85,0.0,1.0,82,0.00,,,0.00,,2013-02-23 13:32:00,
2013-02-23 07:42:00,26.0,21.0,30.11,East,85,0.0,1.0,82,0.00,,,0.00,,2013-02-23 13:42:00,
2013-02-23 07:52:00,25.0,21.0,30.12,East,85,0.0,1.0,83,0.00,,,0.00,,2013-02-23 13:52:00,
2013-02-23 08:02:00,26.0,21.0,30.13,NNW,347,0.0,1.0,82,0.00,,,0.00,,2013-02-23 14:02:00,
2013-02-23 08:11:00,26.0,21.0,30.13,NNW,347,0.0,1.0,82,0.00,,,0.00,,2013-02-23 14:11:00,
2013-02-23 08:21:00,26.0,21.0,30.13,NNW,347,0.0,1.0,82,0.00,,,0.00,,2013-02-23 14:21:00,
2013-02-23 08:32:00,29.0,22.0,30.14,NNE,21,2.0,4.0,75,0.00,,,0.00,,2013-02-23 14:32:00,
2013-02-23 08:42:00,29.0,22.0,30.14,NNE,21,2.0,4.0,75,0.00,,,0.00,,2013-02-23 14:42:00,
2013-02-23 08:52:00,29.0,22.0,30.14,NNE,21,2.0,4.0,75,0.00,,,0.00,,2013-02-23 14:52:00,
2013-02-23 09:01:00,31.0,21.0,30.16,ESE,108,1.0,5.0,67,0.00,,,0.00,,2013-02-23 15:01:00,
2013-02-23 09:11:00,31.0,21.0,30.16,ESE,108,1.0,5.0,67,0.00,,,0.00,,2013-02-23 15:11:00,
2013-02-23 09:22:00,31.0,21.0,30.16,ESE,108,1.0,5.0,67,0.00,,,0.00,,2013-02-23 15:22:00,
2013-02-23 09:32:00,30.0,21.0,30.19,WSW,242,0.0,2.0,68,0.00,,,0.00,,2013-02-23 15:32:00,
2013-02-23 09:42:00,30.0,21.0,30.19,WSW,242,0.0,2.0,68,0.00,,,0.00,,2013-02-23 15:42:00,
2013-02-23 09:52:00,31.0,21.0,30.18,SW,221,0.0,2.0,67,0.00,,,0.00,,2013-02-23 15:52:00,
2013-02-23 10:01:00,32.0,22.0,30.17,NNW,336,0.0,2.0,65,0.00,,,0.00,,2013-02-23 16:01:00,
2013-02-23 10:11:00,32.0,22.0,30.17,NNW,336,0.0,2.0,65,0.00,,,0.00,,2013-02-23 16:11:00,
2013-02-23 10:21:00,34.0,22.0,30.18,WNW,302,0.0,4.0,61,0.00,,,0.00,,2013-02-23 16:21:00,
2013-02-23 10:31:00,34.0,22.0,30.18,WNW,302,0.0,4.0,61,0.00,,,0.00,,2013-02-23 16:31:00,
2013-02-23 10:42:00,34.0,22.0,30.18,WNW,302,0.0,4.0,61,0.00,,,0.00,,2013-02-23 16:42:00,
2013-02-23 10:51:00,36.0,21.0,30.17,North,349,1.0,3.0,55,0.00,,,0.00,,2013-02-23 16:51:00,
2013-02-23 11:01:00,37.0,21.0,30.17,NNE,33,1.0,3.0,52,0.00,,,0.00,,2013-02-23 17:01:00,
2013-02-23 11:11:00,39.0,22.0,30.17,SSE,166,0.0,2.0,51,0.00,,,0.00,,2013-02-23 17:11:00,
2013-02-23 11:21:00,39.0,22.0,30.17,SSE,166,0.0,2.0,51,0.00,,,0.00,,2013-02-23 17:21:00,
2013-02-23 11:32:00,39.0,22.0,30.19,WSW,246,3.0,5.0,51,0.00,,,0.00,,2013-02-23 17:32:00,
2013-02-23 11:42:00,39.0,22.0,30.19,WSW,246,3.0,5.0,51,0.00,,,0.00,,2013-02-23 17:42:00,
2013-02-23 11:52:00,39.0,23.0,30.18,WSW,248,1.0,5.0,53,0.00,,,0.00,,2013-02-23 17:52:00,
2013-02-23 12:01:00,40.0,24.0,30.16,NNW,335,1.0,6.0,53,0.00,,,0.00,,2013-02-23 18:01:00,
2013-02-23 12:12:00,40.0,24.0,30.16,NNW,335,1.0,6.0,53,0.00,,,0.00,,2013-02-23 18:12:00,
2013-02-23 12:22:00,41.0,22.0,30.15,West,269,2.0,6.0,47,0.00,,,0.00,,2013-02-23 18:22:00,
2013-02-23 12:32:00,41.0,22.0,30.15,West,269,2.0,6.0,47,0.00,,,0.00,,2013-02-23 18:32:00,
2013-02-23 12:42:00,41.0,22.0,30.15,West,269,2.0,6.0,47,0.00,,,0.00,,2013-02-23 18:42:00,
2013-02-23 12:51:00,43.0,24.0,30.11,NE,46,2.0,7.0,47,0.00,,,0.00,,2013-02-23 18:51:00,
2013-02-23 13:01:00,43.0,24.0,30.09,East,99,1.0,7.0,46,0.00,,,0.00,,2013-02-23 19:01:00,
2013-02-23 13:11:00,43.0,23.0,30.09,WNW,295,1.0,5.0,44,0.00,,,0.00,,2013-02-23 19:11:00,
2013-02-23 13:21:00,43.0,23.0,30.09,WNW,295,1.0,5.0,44,0.00,,,0.00,,2013-02-23 19:21:00,
2013-02-23 13:32:00,45.0,24.0,30.08,SW,222,2.0,5.0,44,0.00,,,0.00,,2013-02-23 19:32:00,
2013-02-23 13:41:00,45.0,24.0,30.08,SW,222,2.0,5.0,44,0.00,,,0.00,,2013-02-23 19:41:00,
2013-02-23 13:52:00,46.0,25.0,30.07,WSW,246,2.0,5.0,43,0.00,,,0.00,,2013-02-23 19:52:00,
2013-02-23 14:01:00,47.0,25.0,30.06,NW,325,3.0,8.0,42,0.00,,,0.00,,2013-02-23 20:01:00,
2013-02-23 14:11:00,47.0,25.0,30.06,NW,325,3.0,8.0,42,0.00,,,0.00,,2013-02-23 20:11:00,
2013-02-23 14:21:00,47.0,25.0,30.06,NW,325,3.0,8.0,42,0.00,,,0.00,,2013-02-23 20:21:00,
2013-02-23 14:32:00,46.0,25.0,30.05,SSW,195,1.0,6.0,43,0.00,,,0.00,,2013-02-23 20:32:00,
2013-02-23 14:42:00,46.0,25.0,30.05,SSW,195,1.0,6.0,43,0.00,,,0.00,,2013-02-23 20:42:00,
2013-02-23 14:53:00,48.0,27.0,30.04,NW,305,1.0,5.0,43,0.00,,,0.00,,2013-02-23 20:53:00,
2013-02-23 15:01:00,49.0,27.0,30.04,West,266,2.0,4.0,43,0.00,,,0.00,,2013-02-23 21:01:00,
2013-02-23 15:11:00,49.0,27.0,30.03,East,79,1.0,3.0,42,0.00,,,0.00,,2013-02-23 21:11:00,
2013-02-23 15:22:00,49.0,27.0,30.03,East,79,1.0,3.0,42,0.00,,,0.00,,2013-02-23 21:22:00,
2013-02-23 15:32:00,49.0,27.0,30.03,East,79,1.0,3.0,42,0.00,,,0.00,,2013-02-23 21:32:00,
2013-02-23 15:41:00,49.0,27.0,30.03,East,79,1.0,3.0,42,0.00,,,0.00,,2013-02-23 21:41:00,
2013-02-23 15:51:00,49.0,27.0,30.01,NE,56,0.0,3.0,43,0.00,,,0.00,,2013-02-23 21:51:00,
2013-02-23 16:01:00,49.0,28.0,30.00,North,353,0.0,6.0,44,0.00,,,0.00,,2013-02-23 22:01:00,
2013-02-23 16:11:00,50.0,28.0,30.01,SSW,211,0.0,2.0,43,0.00,,,0.00,,2013-02-23 22:11:00,
2013-02-23 16:21:00,50.0,28.0,30.01,SSW,211,0.0,2.0,43,0.00,,,0.00,,2013-02-23 22:21:00,
2013-02-23 16:31:00,51.0,29.0,30.01,SSW,210,2.0,4.0,43,0.00,,,0.00,,2013-02-23 22:31:00,
2013-02-23 16:42:00,51.0,29.0,30.01,SSW,210,2.0,4.0,43,0.00,,,0.00,,2013-02-23 22:42:00,
2013-02-23 16:51:00,52.0,30.0,30.01,NW,312,0.0,3.0,43,0.00,,,0.00,,2013-02-23 22:51:00,
2013-02-23 17:01:00,51.0,30.0,30.01,NW,321,4.0,7.0,44,0.00,,,0.00,,2013-02-23 23:01:00,
2013-02-23 17:11:00,51.0,30.0,30.01,NW,321,4.0,7.0,44,0.00,,,0.00,,2013-02-23 23:11:00,
2013-02-23 17:21:00,51.0,30.0,30.01,NW,321,4.0,7.0,44,0.00,,,0.00,,2013-02-23 23:21:00,
2013-02-23 17:31:00,52.0,32.0,30.00,WSW,240,1.0,3.0,46,0.00,,,0.00,,2013-02-23 23:31:00,
2013-02-23 17:42:00,52.0,32.0,30.00,WSW,240,1.0,3.0,46,0.00,,,0.00,,2013-02-23 23:42:00,
2013-02-23 17:52:00,52.0,32.0,29.99,SSE,159,0.0,2.0,46,0.00,,,0.00,,2013-02-23 23:52:00,
2013-02-23 18:01:00,51.0,31.0,29.99,SSW,200,0.0,2.0,47,0.00,,,0.00,,2013-02-24 00:01:00,
2013-02-23 18:11:00,51.0,31.0,29.99,SSW,200,0.0,2.0,47,0.00,,,0.00,,2013-02-24 00:11:00,
2013-02-23 18:22:00,49.0,31.0,29.99,SSW,211,0.0,2.0,49,0.00,,,0.00,,2013-02-24 00:22:00,
2013-02-23 18:32:00,48.0,32.0,29.99,SW,218,0.0,2.0,53,0.00,,,0.00,,2013-02-24 00:32:00,
2013-02-23 18:42:00,48.0,32.0,29.99,SW,218,0.0,2.0,53,0.00,,,0.00,,2013-02-24 00:42:00,
2013-02-23 18:52:00,47.0,32.0,29.99,SSW,212,0.0,0.0,56,0.00,,,0.00,,2013-02-24 00:52:00,
2013-02-23 19:01:00,46.0,32.0,30.00,SW,222,0.0,0.0,58,0.00,,,0.00,,2013-02-24 01:01:00,
2013-02-23 19:11:00,46.0,32.0,30.00,SW,222,0.0,0.0,58,0.00,,,0.00,,2013-02-24 01:11:00,
2013-02-23 19:22:00,46.0,32.0,30.00,SW,222,0.0,0.0,58,0.00,,,0.00,,2013-02-24 01:22:00,
2013-02-23 19:31:00,43.0,32.0,30.01,SW,222,0.0,0.0,64,0.00,,,0.00,,2013-02-24 01:31:00,
2013-02-23 19:41:00,43.0,32.0,30.01,SW,222,0.0,0.0,64,0.00,,,0.00,,2013-02-24 01:41:00,
2013-02-23 19:52:00,40.0,31.0,30.01,SW,222,0.0,0.0,70,0.00,,,0.00,,2013-02-24 01:52:00,
2013-02-23 20:01:00,40.0,32.0,30.02,SW,222,0.0,0.0,74,0.00,,,0.00,,2013-02-24 02:01:00,
2013-02-23 20:11:00,40.0,32.0,30.02,SW,222,0.0,0.0,74,0.00,,,0.00,,2013-02-24 02:11:00,
2013-02-23 20:21:00,39.0,32.0,30.01,SW,222,0.0,0.0,76,0.00,,,0.00,,2013-02-24 02:21:00,
2013-02-23 20:32:00,39.0,32.0,30.01,SW,222,0.0,0.0,76,0.00,,,0.00,,2013-02-24 02:32:00,
2013-02-23 20:42:00,39.0,32.0,30.01,SW,222,0.0,0.0,76,0.00,,,0.00,,2013-02-24 02:42:00,
2013-02-23 20:52:00,37.0,31.0,30.01,SW,222,0.0,0.0,79,0.00,,,0.00,,2013-02-24 02:52:00,
2013-02-23 21:02:00,37.0,31.0,30.01,ESE,108,0.0,1.0,80,0.00,,,0.00,,2013-02-24 03:02:00,
2013-02-23 21:11:00,37.0,31.0,30.01,ESE,108,0.0,1.0,80,0.00,,,0.00,,2013-02-24 03:11:00,
2013-02-23 21:21:00,37.0,31.0,30.01,ESE,108,0.0,1.0,80,0.00,,,0.00,,2013-02-24 03:21:00,
2013-02-23 21:32:00,37.0,31.0,30.01,ESE,108,0.0,0.0,78,0.00,,,0.00,,2013-02-24 03:32:00,
2013-02-23 21:42:00,37.0,31.0,30.01,ESE,108,0.0,0.0,78,0.00,,,0.00,,2013-02-24 03:42:00,
2013-02-23 21:52:00,37.0,31.0,30.01,ESE,108,0.0,0.0,78,0.00,,,0.00,,2013-02-24 03:52:00,
2013-02-23 22:01:00,37.0,30.0,30.01,ESE,108,0.0,0.0,75,0.00,,,0.00,,2013-02-24 04:01:00,
2013-02-23 22:11:00,37.0,30.0,30.01,ESE,108,0.0,0.0,75,0.00,,,0.00,,2013-02-24 04:11:00,
2013-02-23 22:21:00,36.0,29.0,30.01,ESE,108,0.0,0.0,76,0.00,,,0.00,,2013-02-24 04:21:00,
2013-02-23 22:32:00,36.0,29.0,30.01,ESE,108,0.0,0.0,76,0.00,,,0.00,,2013-02-24 04:32:00,
2013-02-23 22:41:00,36.0,29.0,30.01,ESE,108,0.0,0.0,76,0.00,,,0.00,,2013-02-24 04:41:00,
2013-02-23 22:52:00,36.0,29.0,30.01,ESE,108,0.0,1.0,75,0.00,,,0.00,,2013-02-24 04:52:00,
2013-02-23 23:01:00,35.0,28.0,30.01,ESE,108,0.0,0.0,75,0.00,,,0.00,,2013-02-24 05:01:00,
2013-02-23 23:11:00,35.0,28.0,30.01,ESE,108,0.0,0.0,75,0.00,,,0.00,,2013-02-24 05:11:00,
2013-02-23 23:22:00,34.0,28.0,30.01,ESE,108,0.0,0.0,78,0.00,,,0.00,,2013-02-24 05:22:00,
2013-02-23 23:32:00,34.0,28.0,30.00,ESE,108,0.0,1.0,80,0.00,,,0.00,,2013-02-24 05:32:00,
2013-02-23 23:42:00,34.0,28.0,30.00,ESE,108,0.0,1.0,80,0.00,,,0.00,,2013-02-24 05:42:00,
2013-02-23 23:52:00,34.0,28.0,29.99,SE,136,0.0,1.0,78,0.00,,,0.00,,2013-02-24 05:52:00,